Aérodrome de Montpellier - Candillargues

METAR LFNG

罗盘
风向 的 Aérodrome de Montpellier - Candillargues 14/32
风: 3 kt, 1 beaufort

2 kt

2 kt
改变
0 1.000 2.000 3.000 4.000 5.000
CAVOK
METAR LFMI 110800Z AUTO VRB03KT CAVOK 29/16 Q1017 NOSIG

METAR Aérodrome de Montpellier - Candillargues - LFNG

Aérodrome de Montpellier - Candillargues是蒙彼利埃,法国中的小机场。 该机场有一条跑道: 14/32. 该领域的国际民航组织标志是LFNG.

这份报告是针对2022年8月11日 10:00, 当地时间在Istres Le Tubé Air Base进行的。

机场观察

可变方向的风很小或没有风。

天气为CAVOK。这意味着在5.000 ft或MSA(最低安全高度)以下(以较高者为准)以下没有云。这也意味着没有观测到积雨云或高耸的积云,可见度为10 km 或者更多或更高。此外,不会有雾,降雨或其他重要天气。

温度和风寒是29 °C。 热指数为29。 露点为16 °C,相对湿度为45%。 海平面上的气压为1017 hPa (QNH)。

白天

今天,太阳从06:43升起,在20:53降落。 这适用于Aérodrome de Montpellier - Candillargues,世界夏令时可能有所不同。 当地时间与世界标准时间之间的时差为+2 小时。 夏令时目前正在进行中。

公司介绍

在这个机场,你可以找到飞行俱乐部。 本场上唯一已知的公司是Aéroclub de Camargue。

体会

到Vliegles.nl去找飞行课程,跳伞和其他飞行体验。 浏览页面,了解Aérodrome de Montpellier - Candillargues附近所有可用的活动。 你也可以使用搜索功能来寻找你所在地附近的特定飞行课程、跳伞或其他飞行体验。

跑道

Id 标题 侧风 逆风 侧风 %
14/32 140°-320° 2 kt 2 kt 64 %

逆风成分最大的方向会被突出显示,并用于横风计算。 这并不一定意味着这个方向在使用。

温度 & 天气

温度 29 °C
露点 16 °C
相对湿度 45%
热度指数 29 °C
Kp-index 2  

白天

日出
06:40
中午
13:45
日落
20:50 (10h 17m)

小工具

你想在你的网站上有一个关于Aérodrome de Montpellier - Candillargues的当前航空天气(METAR)的小部件吗?

</> 显示HTML代码

我们和第三方通过cookies跟踪您在我们网站上的上网行为。如果您继续,我们认为您同意我们的cookie政策。 了解更多